createdAt,value
2018-03-31T00:00:48.560Z,53.50
2018-03-31T00:03:15.817Z,53.47
2018-03-31T00:05:43.061Z,53.63
2018-03-31T00:08:10.313Z,53.89
2018-03-31T00:10:37.567Z,54.06
2018-03-31T00:13:04.817Z,52.99
2018-03-31T00:15:32.023Z,53.89
2018-03-31T00:17:59.316Z,54.20
2018-03-31T00:20:26.581Z,54.34
2018-03-31T00:22:53.724Z,54.45
2018-03-31T00:25:20.875Z,54.51
2018-03-31T00:27:48.128Z,54.49
2018-03-31T00:30:15.381Z,54.48
2018-03-31T00:32:42.636Z,54.36
2018-03-31T00:35:09.891Z,53.95
2018-03-31T00:37:37.139Z,54.22
2018-03-31T00:40:04.288Z,54.28
2018-03-31T00:42:31.437Z,54.46
2018-03-31T00:44:58.694Z,54.34
2018-03-31T00:47:25.942Z,54.21
2018-03-31T00:49:53.305Z,54.21
2018-03-31T00:52:20.446Z,54.27
2018-03-31T00:54:47.668Z,54.12
2018-03-31T00:57:14.850Z,54.19
2018-03-31T00:59:41.966Z,54.02
2018-03-31T01:02:09.149Z,53.90
2018-03-31T01:04:36.400Z,53.96
2018-03-31T01:07:03.653Z,53.86
2018-03-31T01:09:30.906Z,53.71
2018-03-31T01:11:58.158Z,53.65
2018-03-31T01:14:25.308Z,53.97
2018-03-31T01:16:52.566Z,54.28
2018-03-31T01:19:19.816Z,54.19
2018-03-31T01:21:47.065Z,54.18
2018-03-31T01:24:14.318Z,54.05
2018-03-31T01:26:41.576Z,53.94
2018-03-31T01:29:08.726Z,54.02
2018-03-31T01:31:35.973Z,54.27
2018-03-31T01:34:03.225Z,54.31
2018-03-31T01:36:30.477Z,54.32
2018-03-31T01:38:57.627Z,54.19
2018-03-31T01:41:24.880Z,54.13
2018-03-31T01:43:52.132Z,54.17
2018-03-31T01:46:19.283Z,54.87
2018-03-31T01:48:46.538Z,54.95
2018-03-31T01:51:13.684Z,55.08
2018-03-31T01:53:40.886Z,55.32
2018-03-31T01:56:08.196Z,56.55
2018-03-31T01:58:35.446Z,57.55
2018-03-31T02:01:02.590Z,58.29
2018-03-31T02:03:29.844Z,56.63
2018-03-31T02:05:57.096Z,57.25
2018-03-31T02:08:24.349Z,57.56
2018-03-31T02:10:51.602Z,57.79
2018-03-31T02:13:18.863Z,58.00
2018-03-31T02:15:46.106Z,57.82
2018-03-31T02:18:13.357Z,57.74
2018-03-31T02:20:40.609Z,58.03
2018-03-31T02:23:07.863Z,58.41
2018-03-31T02:25:35.217Z,58.66
2018-03-31T02:28:02.470Z,58.53
2018-03-31T02:30:29.737Z,58.75
2018-03-31T02:32:56.936Z,58.60
2018-03-31T02:35:24.133Z,58.64
2018-03-31T02:37:51.377Z,58.45
2018-03-31T02:40:18.629Z,59.43
2018-03-31T02:42:45.884Z,60.48
2018-03-31T02:45:13.036Z,60.25
2018-03-31T02:47:40.244Z,59.42
2018-03-31T02:50:07.434Z,59.27
2018-03-31T02:52:34.594Z,59.30
2018-03-31T02:55:01.735Z,59.31
2018-03-31T02:57:28.886Z,58.91
2018-03-31T02:59:56.081Z,58.45
2018-03-31T03:02:23.185Z,58.27
2018-03-31T03:04:50.436Z,57.90
2018-03-31T03:07:17.633Z,57.78
2018-03-31T03:09:44.839Z,57.55
2018-03-31T03:12:11.988Z,57.50
2018-03-31T03:14:39.241Z,57.65
2018-03-31T03:17:06.441Z,57.71
2018-03-31T03:19:33.643Z,57.50
2018-03-31T03:22:01.000Z,57.57
2018-03-31T03:24:28.256Z,57.49
2018-03-31T03:26:55.505Z,57.61
2018-03-31T03:29:22.757Z,57.40
2018-03-31T03:31:50.008Z,57.47
2018-03-31T03:34:17.267Z,57.23
2018-03-31T03:36:44.517Z,57.26
2018-03-31T03:39:11.772Z,57.00
2018-03-31T03:41:39.120Z,56.47
2018-03-31T03:44:06.376Z,56.83
2018-03-31T03:46:33.512Z,57.19
2018-03-31T03:49:00.789Z,57.36
2018-03-31T03:51:27.926Z,57.48
2018-03-31T03:53:55.074Z,57.76
2018-03-31T03:56:22.224Z,58.29
2018-03-31T03:58:49.395Z,58.39
2018-03-31T04:01:16.525Z,58.40
2018-03-31T04:03:43.776Z,58.07
2018-03-31T04:06:10.970Z,58.18
2018-03-31T04:08:38.282Z,58.06
2018-03-31T04:11:05.544Z,58.09
2018-03-31T04:13:32.683Z,57.88
2018-03-31T04:15:59.836Z,57.64
2018-03-31T04:18:26.988Z,57.30
2018-03-31T04:20:54.125Z,57.11
2018-03-31T04:23:21.284Z,57.37
2018-03-31T04:25:48.438Z,57.71
2018-03-31T04:28:15.585Z,57.50
2018-03-31T04:30:42.836Z,57.45
2018-03-31T04:33:09.989Z,57.59
2018-03-31T04:35:37.137Z,57.87
2018-03-31T04:38:04.286Z,58.33
2018-03-31T04:40:31.538Z,59.08
2018-03-31T04:42:58.792Z,58.88
2018-03-31T04:45:25.940Z,59.13
2018-03-31T04:47:53.082Z,59.10
2018-03-31T04:50:20.344Z,58.88
2018-03-31T04:52:47.499Z,59.65
2018-03-31T04:55:14.848Z,59.25
2018-03-31T04:57:41.998Z,59.60
2018-03-31T05:00:09.206Z,59.15
2018-03-31T05:02:36.402Z,59.63
2018-03-31T05:05:03.550Z,59.57
2018-03-31T05:07:30.803Z,59.44
2018-03-31T05:09:58.054Z,59.06
2018-03-31T05:12:25.204Z,59.02
2018-03-31T05:14:52.456Z,58.92
2018-03-31T05:17:19.717Z,58.67
2018-03-31T05:19:46.964Z,58.40
2018-03-31T05:22:14.213Z,58.64
2018-03-31T05:24:41.364Z,58.38
2018-03-31T05:27:08.514Z,58.48
2018-03-31T05:29:35.767Z,58.33
2018-03-31T05:32:02.918Z,58.12
2018-03-31T05:34:30.067Z,58.04
2018-03-31T05:36:57.423Z,58.28
2018-03-31T05:39:24.618Z,58.35
2018-03-31T05:41:51.823Z,58.36
2018-03-31T05:44:19.081Z,58.20
2018-03-31T05:46:46.268Z,57.98
2018-03-31T05:49:13.481Z,57.85
2018-03-31T05:51:40.616Z,57.98
2018-03-31T05:54:07.772Z,58.23
2018-03-31T05:56:35.030Z,58.78
2018-03-31T05:59:02.292Z,59.17
2018-03-31T06:01:29.498Z,59.09
2018-03-31T06:03:56.685Z,58.84
2018-03-31T06:06:23.996Z,58.96
2018-03-31T06:08:51.094Z,59.57
2018-03-31T06:11:24.382Z,60.16
2018-03-31T06:13:51.581Z,60.87
2018-03-31T06:16:18.889Z,60.06
2018-03-31T06:18:46.037Z,59.24
2018-03-31T06:21:13.191Z,59.10
2018-03-31T06:23:40.334Z,58.73
2018-03-31T06:26:07.588Z,57.52
2018-03-31T06:28:34.855Z,56.92
2018-03-31T06:31:02.052Z,56.35
2018-03-31T06:33:29.357Z,55.87
2018-03-31T06:35:56.503Z,56.28
2018-03-31T06:38:23.648Z,55.85
2018-03-31T06:40:50.803Z,55.64
2018-03-31T06:43:18.047Z,54.64
2018-03-31T06:45:45.239Z,53.95
2018-03-31T06:48:12.503Z,53.39
2018-03-31T06:50:39.702Z,53.32
2018-03-31T06:53:06.851Z,55.80
2018-03-31T06:55:34.053Z,57.97
2018-03-31T06:58:01.256Z,58.56
2018-03-31T07:00:28.410Z,56.34
2018-03-31T07:02:55.609Z,54.98
2018-03-31T07:05:22.869Z,51.94
2018-03-31T07:07:50.162Z,50.00
2018-03-31T07:10:17.418Z,49.31
2018-03-31T07:12:44.564Z,48.71
2018-03-31T07:15:11.816Z,47.45
2018-03-31T07:17:39.069Z,49.94
2018-03-31T07:20:06.321Z,50.45
2018-03-31T07:22:33.573Z,49.74
2018-03-31T07:25:00.826Z,49.47
2018-03-31T07:27:27.978Z,50.16
2018-03-31T07:29:55.120Z,50.13
2018-03-31T07:32:22.277Z,51.06
2018-03-31T07:34:49.529Z,50.94
2018-03-31T07:37:16.834Z,51.82
2018-03-31T07:39:44.033Z,51.47
2018-03-31T07:42:11.284Z,53.01
2018-03-31T07:44:38.537Z,51.00
2018-03-31T07:47:05.790Z,51.60
2018-03-31T07:49:33.042Z,50.53
2018-03-31T07:52:00.327Z,49.15
2018-03-31T07:54:27.502Z,48.69
2018-03-31T07:56:54.794Z,47.92
2018-03-31T07:59:21.948Z,46.57
2018-03-31T08:01:49.208Z,44.07
2018-03-31T08:04:16.352Z,44.77
2018-03-31T08:06:43.706Z,44.50
2018-03-31T08:09:10.959Z,43.32
2018-03-31T08:11:38.108Z,41.40
2018-03-31T08:14:05.361Z,39.26
2018-03-31T08:16:32.581Z,37.34
2018-03-31T08:18:59.753Z,37.36
2018-03-31T08:21:27.020Z,36.20
2018-03-31T08:23:54.167Z,34.90
2018-03-31T08:26:21.418Z,35.31
2018-03-31T08:28:48.797Z,35.37
2018-03-31T08:31:15.932Z,35.27
2018-03-31T08:33:43.072Z,35.24
2018-03-31T08:36:10.331Z,35.26
2018-03-31T08:38:37.474Z,33.53
2018-03-31T08:41:04.729Z,32.27
2018-03-31T08:43:31.980Z,32.49
2018-03-31T08:45:59.246Z,33.02
2018-03-31T08:48:26.442Z,32.70
2018-03-31T08:50:53.739Z,35.37
2018-03-31T08:53:20.884Z,34.84
2018-03-31T08:55:48.036Z,34.30
2018-03-31T08:58:15.236Z,33.03
2018-03-31T09:00:42.500Z,33.07
2018-03-31T09:03:09.691Z,32.51
2018-03-31T09:05:36.841Z,31.42
2018-03-31T09:08:04.059Z,26.97
2018-03-31T09:10:31.141Z,28.72
2018-03-31T09:12:58.398Z,29.22
2018-03-31T09:15:25.647Z,28.82
2018-03-31T09:17:52.797Z,28.23
2018-03-31T09:20:20.049Z,27.56
2018-03-31T09:22:47.300Z,28.12
2018-03-31T09:25:14.553Z,26.94
2018-03-31T09:27:41.806Z,26.55
2018-03-31T09:30:08.956Z,26.48
2018-03-31T09:32:36.167Z,27.08
2018-03-31T09:35:03.361Z,27.07
2018-03-31T09:37:30.561Z,26.68
2018-03-31T09:39:57.833Z,26.18
2018-03-31T09:42:25.017Z,25.56
2018-03-31T09:44:52.265Z,24.67
2018-03-31T09:47:19.403Z,24.69
2018-03-31T09:49:46.667Z,23.52
2018-03-31T09:52:13.922Z,24.61
2018-03-31T09:54:41.172Z,23.57
2018-03-31T09:57:08.425Z,23.68
2018-03-31T09:59:35.779Z,23.33
2018-03-31T10:02:03.033Z,22.31
2018-03-31T10:04:30.182Z,21.44
2018-03-31T10:06:57.434Z,18.97
2018-03-31T10:09:24.659Z,20.88
2018-03-31T10:11:51.944Z,22.43
2018-03-31T10:14:19.293Z,20.91
2018-03-31T10:16:46.444Z,21.31
2018-03-31T10:19:13.701Z,21.11
2018-03-31T10:21:40.915Z,19.72
2018-03-31T10:24:08.316Z,19.36
2018-03-31T10:26:35.556Z,18.77
2018-03-31T10:29:02.710Z,18.51
2018-03-31T10:31:29.856Z,17.38
2018-03-31T10:33:57.108Z,18.94
2018-03-31T10:36:24.365Z,19.41
2018-03-31T10:38:51.653Z,18.92
2018-03-31T10:41:18.871Z,20.02
2018-03-31T10:43:46.064Z,18.73
2018-03-31T10:46:13.156Z,18.91
2018-03-31T10:48:40.417Z,18.41
2018-03-31T10:51:07.568Z,18.83
2018-03-31T10:53:34.819Z,17.24
2018-03-31T10:56:02.073Z,18.23
2018-03-31T10:58:29.262Z,18.53
2018-03-31T11:00:56.528Z,19.03
2018-03-31T11:03:23.828Z,19.31
2018-03-31T11:05:51.187Z,19.97
2018-03-31T11:08:18.383Z,20.04
2018-03-31T11:10:45.588Z,20.39
2018-03-31T11:13:12.816Z,20.09
2018-03-31T11:15:40.090Z,19.81
2018-03-31T11:18:07.240Z,20.36
2018-03-31T11:20:34.493Z,19.44
2018-03-31T11:23:01.750Z,18.95
2018-03-31T11:25:28.950Z,20.66
2018-03-31T11:27:56.148Z,19.06
2018-03-31T11:30:23.401Z,18.89
2018-03-31T11:32:50.653Z,18.74
2018-03-31T11:35:17.904Z,18.94
2018-03-31T11:37:45.162Z,19.43
2018-03-31T11:40:12.409Z,19.63
2018-03-31T11:42:39.560Z,18.67
2018-03-31T11:45:06.714Z,18.65
2018-03-31T11:47:33.970Z,19.90
2018-03-31T11:50:01.112Z,19.20
2018-03-31T11:52:28.377Z,18.70
2018-03-31T11:54:55.616Z,18.80
2018-03-31T11:57:22.766Z,18.90
2018-03-31T11:59:49.905Z,19.48
2018-03-31T12:02:17.435Z,19.11
2018-03-31T12:04:44.730Z,19.10
2018-03-31T12:07:11.982Z,17.03
2018-03-31T12:09:39.119Z,18.50
2018-03-31T12:12:06.388Z,18.12
2018-03-31T12:14:33.528Z,18.71
2018-03-31T12:17:00.786Z,17.76
2018-03-31T12:19:28.038Z,16.94
2018-03-31T12:21:55.193Z,19.46
2018-03-31T12:24:22.440Z,17.58
2018-03-31T12:26:49.692Z,19.37
2018-03-31T12:29:16.950Z,18.34
2018-03-31T12:31:44.198Z,19.79
2018-03-31T12:34:11.450Z,18.86
2018-03-31T12:36:38.824Z,18.64
2018-03-31T12:39:06.009Z,19.73
2018-03-31T12:41:33.206Z,19.08
2018-03-31T12:44:00.560Z,17.91
2018-03-31T12:46:27.712Z,19.17
2018-03-31T12:48:54.964Z,18.72
2018-03-31T12:51:22.216Z,17.51
2018-03-31T12:53:49.572Z,17.28
2018-03-31T12:56:16.722Z,17.51
2018-03-31T12:58:43.872Z,18.19
2018-03-31T13:01:11.124Z,17.87
2018-03-31T13:03:38.280Z,17.98
2018-03-31T13:06:05.425Z,17.14
2018-03-31T13:08:32.604Z,17.51
2018-03-31T13:10:59.724Z,18.09
2018-03-31T13:13:26.976Z,19.05
2018-03-31T13:15:54.230Z,19.51
2018-03-31T13:18:21.486Z,19.85
2018-03-31T13:20:48.733Z,20.41
2018-03-31T13:23:15.941Z,21.16
2018-03-31T13:25:43.144Z,20.83
2018-03-31T13:28:10.349Z,21.42
2018-03-31T13:30:37.539Z,20.85
2018-03-31T13:33:04.734Z,21.64
2018-03-31T13:35:32.248Z,21.55
2018-03-31T13:37:59.608Z,22.21
2018-03-31T13:40:26.909Z,22.53
2018-03-31T13:42:54.212Z,22.33
2018-03-31T13:45:21.399Z,22.45
2018-03-31T13:47:48.563Z,23.14
2018-03-31T13:50:15.637Z,22.66
2018-03-31T13:52:42.812Z,22.11
2018-03-31T13:55:09.959Z,21.95
2018-03-31T13:57:37.866Z,22.33
2018-03-31T14:00:05.181Z,21.90
2018-03-31T14:02:32.484Z,22.04
2018-03-31T14:04:59.993Z,22.43
2018-03-31T14:07:27.252Z,21.74
2018-03-31T14:09:54.409Z,22.07
2018-03-31T14:12:21.660Z,21.91
2018-03-31T14:14:48.847Z,21.06
2018-03-31T14:17:16.113Z,20.31
2018-03-31T14:19:43.200Z,20.84
2018-03-31T14:22:10.398Z,21.14
2018-03-31T14:24:37.504Z,21.28
2018-03-31T14:27:04.652Z,22.07
2018-03-31T14:29:31.910Z,21.22
2018-03-31T14:31:59.155Z,21.09
2018-03-31T14:34:26.513Z,21.59
2018-03-31T14:36:53.653Z,21.37
2018-03-31T14:39:20.913Z,21.05
2018-03-31T14:41:48.166Z,21.55
2018-03-31T14:44:15.423Z,22.21
2018-03-31T14:46:42.573Z,21.90
2018-03-31T14:49:09.822Z,22.86
2018-03-31T14:51:37.073Z,22.24
2018-03-31T14:54:04.326Z,21.57
2018-03-31T14:56:31.580Z,21.87
2018-03-31T14:58:58.756Z,22.17
2018-03-31T15:01:26.003Z,21.68
2018-03-31T15:03:53.236Z,21.02
2018-03-31T15:06:20.384Z,21.28
2018-03-31T15:08:47.534Z,21.75
2018-03-31T15:11:14.680Z,21.89
2018-03-31T15:13:41.935Z,22.29
2018-03-31T15:16:09.086Z,22.04
2018-03-31T15:18:36.228Z,21.79
2018-03-31T15:21:03.487Z,22.15
2018-03-31T15:23:30.640Z,22.65
2018-03-31T15:25:57.786Z,23.34
2018-03-31T15:28:24.945Z,23.86
2018-03-31T15:30:52.091Z,24.14
2018-03-31T15:33:19.338Z,23.69
2018-03-31T15:35:46.898Z,23.44
2018-03-31T15:38:14.049Z,23.69
2018-03-31T15:40:41.232Z,23.12
2018-03-31T15:43:08.453Z,22.93
2018-03-31T15:45:35.702Z,23.50
2018-03-31T15:48:02.849Z,23.04
2018-03-31T15:50:31.031Z,23.69
2018-03-31T15:52:58.285Z,23.59
2018-03-31T15:55:25.533Z,23.75
2018-03-31T15:57:52.786Z,23.42
2018-03-31T16:00:19.923Z,23.63
2018-03-31T16:02:47.085Z,24.09
2018-03-31T16:05:14.337Z,24.38
2018-03-31T16:07:41.497Z,23.96
2018-03-31T16:10:08.753Z,24.13
2018-03-31T16:12:35.888Z,24.55
2018-03-31T16:15:03.035Z,24.16
2018-03-31T16:17:30.295Z,24.18
2018-03-31T16:19:57.489Z,23.36
2018-03-31T16:22:24.901Z,23.92
2018-03-31T16:24:52.354Z,23.69
2018-03-31T16:27:19.614Z,24.44
2018-03-31T16:32:29.474Z,24.90
2018-03-31T16:34:56.626Z,25.55
2018-03-31T16:37:23.877Z,26.09
2018-03-31T16:39:51.131Z,26.35
2018-03-31T16:42:18.383Z,26.54
2018-03-31T16:44:45.531Z,26.84
2018-03-31T16:47:12.785Z,26.80
2018-03-31T16:49:40.046Z,26.81
2018-03-31T16:52:07.180Z,26.50
2018-03-31T16:54:34.439Z,26.77
2018-03-31T16:57:01.622Z,26.77
2018-03-31T16:59:28.841Z,26.53
2018-03-31T17:01:55.976Z,26.82
2018-03-31T17:04:23.244Z,27.35
2018-03-31T17:06:50.496Z,27.48
2018-03-31T17:09:17.748Z,27.65
2018-03-31T17:11:45.002Z,27.88
2018-03-31T17:14:12.255Z,28.00
2018-03-31T17:16:39.393Z,28.03
2018-03-31T17:19:06.559Z,27.83
2018-03-31T17:21:33.805Z,27.87
2018-03-31T17:24:01.124Z,27.98
2018-03-31T17:26:28.310Z,27.80
2018-03-31T17:28:55.567Z,27.69
2018-03-31T17:31:22.720Z,27.76
2018-03-31T17:33:49.915Z,27.69
2018-03-31T17:36:17.115Z,27.74
2018-03-31T17:38:44.475Z,27.89
2018-03-31T17:41:11.829Z,27.93
2018-03-31T17:43:39.080Z,27.90
2018-03-31T17:46:06.331Z,27.86
2018-03-31T17:48:33.539Z,27.82
2018-03-31T17:51:00.784Z,27.90
2018-03-31T17:53:27.948Z,28.20
2018-03-31T17:55:55.239Z,27.78
2018-03-31T17:58:22.431Z,28.31
2018-03-31T18:00:49.750Z,28.61
2018-03-31T18:03:16.883Z,28.87
2018-03-31T18:05:44.145Z,29.58
2018-03-31T18:08:11.387Z,30.04
2018-03-31T18:10:38.648Z,30.25
2018-03-31T18:13:05.798Z,30.61
2018-03-31T18:15:32.871Z,30.81
2018-03-31T18:18:00.200Z,31.33
2018-03-31T18:20:27.359Z,31.55
2018-03-31T18:22:54.548Z,31.59
2018-03-31T18:25:21.855Z,31.48
2018-03-31T18:27:49.012Z,31.37
2018-03-31T18:30:16.323Z,31.50
2018-03-31T18:32:43.509Z,31.73
2018-03-31T18:35:10.660Z,31.80
2018-03-31T18:37:37.811Z,31.66
2018-03-31T18:40:04.967Z,31.75
2018-03-31T18:42:32.108Z,32.00
2018-03-31T18:44:59.417Z,32.13
2018-03-31T18:47:26.821Z,32.58
2018-03-31T18:49:54.075Z,32.49
2018-03-31T18:52:21.331Z,32.64
2018-03-31T18:54:48.640Z,32.74
2018-03-31T18:57:15.933Z,32.79
2018-03-31T18:59:43.161Z,33.01
2018-03-31T19:02:10.547Z,33.13
2018-03-31T19:04:37.714Z,33.27
2018-03-31T19:07:04.898Z,33.41
2018-03-31T19:09:32.117Z,33.49
2018-03-31T19:11:59.347Z,33.66
2018-03-31T19:14:26.599Z,33.56
2018-03-31T19:16:59.488Z,33.84
2018-03-31T19:19:26.623Z,33.94
2018-03-31T19:21:53.885Z,34.30
2018-03-31T19:24:21.137Z,34.23
2018-03-31T19:26:48.391Z,34.22
2018-03-31T19:29:15.700Z,34.13
2018-03-31T19:31:42.893Z,34.13
2018-03-31T19:34:10.075Z,34.19
2018-03-31T19:36:37.398Z,34.45
2018-03-31T19:39:04.549Z,34.83
2018-03-31T19:41:31.856Z,35.31
2018-03-31T19:43:58.942Z,35.56
2018-03-31T19:46:26.204Z,35.66
2018-03-31T19:48:53.353Z,35.87
2018-03-31T19:51:20.496Z,36.18
2018-03-31T19:53:47.910Z,36.46
2018-03-31T19:56:15.008Z,36.51
2018-03-31T19:58:42.152Z,36.50
2018-03-31T20:01:09.305Z,36.64
2018-03-31T20:03:36.561Z,36.51
2018-03-31T20:06:03.816Z,36.65
2018-03-31T20:08:31.067Z,36.88
2018-03-31T20:10:58.224Z,36.95
2018-03-31T20:13:25.468Z,36.92
2018-03-31T20:15:52.720Z,37.19
2018-03-31T20:18:19.973Z,37.40
2018-03-31T20:20:47.401Z,37.51
2018-03-31T20:23:14.686Z,37.90
2018-03-31T20:25:41.939Z,38.63
2018-03-31T20:28:09.186Z,38.92
2018-03-31T20:30:36.389Z,38.94
2018-03-31T20:33:03.488Z,39.03
2018-03-31T20:35:30.701Z,39.02
2018-03-31T20:37:57.886Z,38.85
2018-03-31T20:40:25.149Z,38.54
2018-03-31T20:42:52.293Z,38.60
2018-03-31T20:45:19.750Z,38.55
2018-03-31T20:47:47.003Z,38.65
2018-03-31T20:50:14.254Z,38.56
2018-03-31T20:52:41.508Z,38.51
2018-03-31T20:55:08.647Z,38.73
2018-03-31T20:57:35.902Z,38.61
2018-03-31T21:00:03.165Z,38.88
2018-03-31T21:02:30.313Z,39.06
2018-03-31T21:04:57.564Z,39.13
2018-03-31T21:07:24.764Z,39.37
2018-03-31T21:09:52.076Z,39.28
2018-03-31T21:12:19.323Z,38.97
2018-03-31T21:14:46.465Z,39.27
2018-03-31T21:17:13.728Z,39.82
2018-03-31T21:19:40.873Z,39.89
2018-03-31T21:22:08.127Z,39.89
2018-03-31T21:24:35.274Z,39.72
2018-03-31T21:27:02.529Z,39.65
2018-03-31T21:29:29.678Z,39.54
2018-03-31T21:31:56.934Z,39.54
2018-03-31T21:34:24.187Z,39.56
2018-03-31T21:36:51.329Z,39.52
2018-03-31T21:39:18.592Z,39.54
2018-03-31T21:41:45.839Z,39.64
2018-03-31T21:44:13.197Z,39.75
2018-03-31T21:46:40.447Z,39.96
2018-03-31T21:49:07.650Z,39.95
2018-03-31T21:51:34.939Z,39.92
2018-03-31T21:54:02.155Z,40.02
2018-03-31T21:56:29.355Z,39.86
2018-03-31T21:58:56.608Z,39.85
2018-03-31T22:01:23.882Z,39.92
2018-03-31T22:03:51.226Z,40.16
2018-03-31T22:06:18.470Z,40.18
2018-03-31T22:08:45.726Z,39.97
2018-03-31T22:11:12.969Z,40.38
2018-03-31T22:13:45.714Z,41.00
2018-03-31T22:16:12.788Z,41.95
2018-03-31T22:18:40.053Z,42.69
2018-03-31T22:21:07.407Z,43.12
2018-03-31T22:23:34.660Z,43.44
2018-03-31T22:26:01.916Z,43.46
2018-03-31T22:28:29.164Z,43.68
2018-03-31T22:30:56.316Z,43.87
2018-03-31T22:33:23.573Z,43.91
2018-03-31T22:35:50.817Z,44.17
2018-03-31T22:38:17.997Z,44.56
2018-03-31T22:40:45.225Z,44.50
2018-03-31T22:43:12.434Z,44.64
2018-03-31T22:45:39.624Z,44.43
2018-03-31T22:48:06.878Z,44.21
2018-03-31T22:50:33.950Z,43.79
2018-03-31T22:53:01.176Z,43.42
2018-03-31T22:55:28.389Z,43.28
2018-03-31T22:57:55.682Z,43.34
2018-03-31T23:00:22.831Z,43.51
2018-03-31T23:02:50.214Z,43.59
2018-03-31T23:05:17.439Z,43.72
2018-03-31T23:07:44.701Z,44.19
2018-03-31T23:10:11.945Z,44.10
2018-03-31T23:12:39.086Z,44.27
2018-03-31T23:15:06.244Z,44.07
2018-03-31T23:17:33.496Z,44.17
2018-03-31T23:20:00.663Z,44.07
2018-03-31T23:22:27.898Z,44.16
2018-03-31T23:24:55.155Z,44.11
2018-03-31T23:27:22.297Z,43.71
2018-03-31T23:29:49.552Z,43.26
2018-03-31T23:32:16.866Z,43.20
2018-03-31T23:34:44.106Z,43.17
2018-03-31T23:37:11.413Z,42.99
2018-03-31T23:39:38.664Z,42.89
2018-03-31T23:42:05.917Z,42.70
2018-03-31T23:44:33.174Z,42.62
2018-03-31T23:47:00.319Z,42.44
2018-03-31T23:49:27.574Z,42.72
2018-03-31T23:51:54.824Z,42.79
2018-03-31T23:54:22.077Z,42.96
2018-03-31T23:56:49.335Z,42.92
2018-03-31T23:59:16.529Z,43.17
